AFL1886 UUEE-UCFM
Flight info
| Callsign | AFL1886 |
|---|---|
| Flight time | 3h 37m |
| Altitude | 39000 |
| Route | TOGMO3J TOGMO M56 BEKAS L163 SIVKO/K0917F410 L728 GEDSA L147 BASAN KALIN1 |
| Aircraft | A359/H-SDE2E3GHIJ3J4J5LM1ORWXY/LB1D1 |
Departure
| Time | 2026-05-08 19:03 |
|---|---|
| Airport | Sheremetyevo International Airport (UUEE) |
Arrival
| Time | 2026-05-08 22:40 |
|---|---|
| Airport | Manas International Airport (UCFM) |
| Time | Latitude | Longitude | Altitude | Speed | Heading |
|---|---|---|---|---|---|
| 2026-05-08 18:21 | 55.97699 | 37.41195 | 647 ft | 0 kts | 346° |
| 2026-05-08 18:46 | 55.97698 | 37.41196 | 645 ft | 2 kts | 346° |
| 2026-05-08 18:46 | 55.97682 | 37.41199 | 645 ft | 2 kts | 3° |
| 2026-05-08 18:46 | 55.97666 | 37.41195 | 647 ft | 2 kts | 20° |
| 2026-05-08 18:47 | 55.97651 | 37.41181 | 649 ft | 2 kts | 36° |
| 2026-05-08 18:47 | 55.97639 | 37.41162 | 648 ft | 2 kts | 48° |
| 2026-05-08 18:47 | 55.97629 | 37.41139 | 648 ft | 2 kts | 56° |
| 2026-05-08 18:47 | 55.97620 | 37.41114 | 647 ft | 2 kts | 62° |
| 2026-05-08 18:48 | 55.97613 | 37.41087 | 648 ft | 2 kts | 67° |
| 2026-05-08 18:48 | 55.97607 | 37.41060 | 650 ft | 2 kts | 71° |
| 2026-05-08 18:48 | 55.97603 | 37.41036 | 646 ft | 1 kts | 74° |
| 2026-05-08 18:48 | 55.97602 | 37.41027 | 647 ft | 0 kts | 75° |
| 2026-05-08 18:56 | 55.97605 | 37.41048 | 645 ft | 7 kts | 76° |
| 2026-05-08 18:56 | 55.97588 | 37.41129 | 645 ft | 8 kts | 136° |
| 2026-05-08 18:56 | 55.97554 | 37.41213 | 646 ft | 9 kts | 104° |
| 2026-05-08 18:57 | 55.97559 | 37.41339 | 645 ft | 11 kts | 78° |
| 2026-05-08 18:57 | 55.97572 | 37.41434 | 645 ft | 13 kts | 75° |
| 2026-05-08 18:57 | 55.97606 | 37.41655 | 647 ft | 15 kts | 75° |
| 2026-05-08 18:57 | 55.97634 | 37.41846 | 647 ft | 17 kts | 75° |
| 2026-05-08 18:58 | 55.97665 | 37.42056 | 647 ft | 18 kts | 75° |
| 2026-05-08 18:58 | 55.97700 | 37.42285 | 645 ft | 20 kts | 75° |
| 2026-05-08 18:58 | 55.97736 | 37.42529 | 648 ft | 21 kts | 75° |
| 2026-05-08 18:58 | 55.97776 | 37.42792 | 645 ft | 23 kts | 75° |
| 2026-05-08 18:59 | 55.97818 | 37.43070 | 645 ft | 24 kts | 75° |
| 2026-05-08 18:59 | 55.97861 | 37.43358 | 645 ft | 25 kts | 75° |
| 2026-05-08 18:59 | 55.97905 | 37.43650 | 645 ft | 22 kts | 75° |
| 2026-05-08 18:59 | 55.97938 | 37.43874 | 648 ft | 14 kts | 75° |
| 2026-05-08 19:00 | 55.97936 | 37.43993 | 645 ft | 7 kts | 127° |
| 2026-05-08 19:00 | 55.97928 | 37.44007 | 646 ft | 0 kts | 137° |
| 2026-05-08 19:00 | 55.97925 | 37.44010 | 646 ft | 4 kts | 143° |
| 2026-05-08 19:01 | 55.97864 | 37.44059 | 646 ft | 11 kts | 162° |
| 2026-05-08 19:01 | 55.97794 | 37.44032 | 646 ft | 11 kts | 230° |
| 2026-05-08 19:01 | 55.97769 | 37.43929 | 649 ft | 0 kts | 254° |
| 2026-05-08 19:02 | 55.97724 | 37.43635 | 647 ft | 60 kts | 255° |
| 2026-05-08 19:02 | 55.97559 | 37.42530 | 650 ft | 122 kts | 255° |
| 2026-05-08 19:03 | 55.97290 | 37.40741 | 669 ft | 172 kts | 254° |
| 2026-05-08 19:03 | 55.96957 | 37.38701 | 1336 ft | 168 kts | 254° |
| 2026-05-08 19:03 | 55.96615 | 37.36631 | 1845 ft | 184 kts | 256° |
| 2026-05-08 19:03 | 55.96244 | 37.34293 | 2064 ft | 212 kts | 257° |
| 2026-05-08 19:04 | 55.95817 | 37.31575 | 2251 ft | 243 kts | 256° |
| 2026-05-08 19:04 | 55.95332 | 37.28505 | 2612 ft | 267 kts | 256° |
| 2026-05-08 19:04 | 55.94816 | 37.25264 | 3349 ft | 274 kts | 256° |
| 2026-05-08 19:04 | 55.94292 | 37.21976 | 4188 ft | 276 kts | 256° |
| 2026-05-08 19:05 | 55.93770 | 37.18683 | 5060 ft | 276 kts | 256° |
| 2026-05-08 19:05 | 55.93250 | 37.15398 | 5980 ft | 274 kts | 255° |
| 2026-05-08 19:05 | 55.92735 | 37.12145 | 6739 ft | 269 kts | 254° |
| 2026-05-08 19:05 | 55.92231 | 37.08956 | 7632 ft | 267 kts | 254° |
| 2026-05-08 19:06 | 55.91768 | 37.05722 | 8477 ft | 271 kts | 260° |
| 2026-05-08 19:06 | 55.91764 | 37.02371 | 9275 ft | 273 kts | 280° |
| 2026-05-08 19:06 | 55.92491 | 36.99248 | 9813 ft | 275 kts | 303° |
| 2026-05-08 19:06 | 55.93848 | 36.96837 | 10000 ft | 277 kts | 321° |
| 2026-05-08 19:07 | 55.95441 | 36.94846 | 10014 ft | 281 kts | 324° |
| 2026-05-08 19:07 | 55.97081 | 36.92990 | 10006 ft | 283 kts | 329° |
| 2026-05-08 19:07 | 55.98954 | 36.91895 | 10012 ft | 287 kts | 351° |
| 2026-05-08 19:07 | 56.00931 | 36.92243 | 10014 ft | 290 kts | 16° |
| 2026-05-08 19:08 | 56.02726 | 36.93887 | 10153 ft | 291 kts | 30° |
| 2026-05-08 19:08 | 56.04429 | 36.95892 | 10665 ft | 296 kts | 31° |
| 2026-05-08 19:08 | 56.06151 | 36.97944 | 11466 ft | 298 kts | 30° |
| 2026-05-08 19:08 | 56.07897 | 37.00011 | 12244 ft | 303 kts | 30° |
| 2026-05-08 19:09 | 56.09672 | 37.02107 | 12986 ft | 308 kts | 30° |
| 2026-05-08 19:09 | 56.11335 | 37.04612 | 13676 ft | 319 kts | 46° |
| 2026-05-08 19:09 | 56.12442 | 37.08108 | 14158 ft | 333 kts | 69° |
| 2026-05-08 19:09 | 56.13100 | 37.12214 | 14501 ft | 349 kts | 74° |
| 2026-05-08 19:10 | 56.13683 | 37.16513 | 14965 ft | 356 kts | 74° |
| 2026-05-08 19:10 | 56.14264 | 37.20787 | 15171 ft | 358 kts | 74° |
| 2026-05-08 19:10 | 56.14841 | 37.25135 | 15191 ft | 360 kts | 77° |
| 2026-05-08 19:10 | 56.14964 | 37.29614 | 15193 ft | 362 kts | 97° |
| 2026-05-08 19:11 | 56.14170 | 37.33875 | 15195 ft | 359 kts | 122° |
| 2026-05-08 19:11 | 56.12538 | 37.37205 | 15331 ft | 357 kts | 146° |
| 2026-05-08 19:11 | 56.10347 | 37.39182 | 15987 ft | 349 kts | 166° |
| 2026-05-08 19:11 | 56.08053 | 37.40679 | 16743 ft | 353 kts | 161° |
| 2026-05-08 19:12 | 56.05795 | 37.42478 | 17407 ft | 358 kts | 159° |
| 2026-05-08 19:12 | 56.03518 | 37.44376 | 18057 ft | 363 kts | 159° |
| 2026-05-08 19:12 | 56.01215 | 37.46306 | 18691 ft | 367 kts | 159° |
| 2026-05-08 19:12 | 55.98889 | 37.48255 | 19294 ft | 371 kts | 159° |
| 2026-05-08 19:13 | 55.96634 | 37.50402 | 19862 ft | 378 kts | 149° |
| 2026-05-08 19:13 | 55.94697 | 37.53622 | 20172 ft | 386 kts | 128° |
| 2026-05-08 19:13 | 55.93500 | 37.57958 | 20460 ft | 396 kts | 106° |
| 2026-05-08 19:13 | 55.92895 | 37.62791 | 21012 ft | 401 kts | 101° |
| 2026-05-08 19:14 | 55.92382 | 37.67700 | 21632 ft | 404 kts | 101° |
| 2026-05-08 19:14 | 55.91808 | 37.72602 | 22073 ft | 404 kts | 105° |
| 2026-05-08 19:14 | 55.90777 | 37.77237 | 22206 ft | 401 kts | 118° |
| 2026-05-08 19:14 | 55.89453 | 37.81611 | 22206 ft | 401 kts | 121° |
| 2026-05-08 19:15 | 55.88082 | 37.85955 | 22203 ft | 402 kts | 121° |
| 2026-05-08 19:15 | 55.86713 | 37.90290 | 22202 ft | 402 kts | 121° |
| 2026-05-08 19:15 | 55.85344 | 37.94637 | 22199 ft | 402 kts | 121° |
| 2026-05-08 19:15 | 55.83967 | 37.98971 | 22193 ft | 402 kts | 122° |
| 2026-05-08 19:16 | 55.82312 | 38.02957 | 22193 ft | 398 kts | 136° |
| 2026-05-08 19:16 | 55.80195 | 38.06036 | 22195 ft | 390 kts | 153° |
| 2026-05-08 19:16 | 55.77714 | 38.07794 | 22195 ft | 380 kts | 172° |
| 2026-05-08 19:16 | 55.75117 | 38.08036 | 22189 ft | 369 kts | 192° |
| 2026-05-08 19:17 | 55.72705 | 38.06744 | 22183 ft | 359 kts | 209° |
| 2026-05-08 19:17 | 55.70741 | 38.04141 | 22190 ft | 350 kts | 231° |
| 2026-05-08 19:17 | 55.69471 | 38.00581 | 22196 ft | 345 kts | 245° |
| 2026-05-08 19:17 | 55.68377 | 37.96777 | 22192 ft | 345 kts | 243° |
| 2026-05-08 19:18 | 55.67028 | 37.93246 | 22190 ft | 348 kts | 231° |
| 2026-05-08 19:18 | 55.65197 | 37.90432 | 22190 ft | 353 kts | 216° |
| 2026-05-08 19:18 | 55.62945 | 37.88554 | 22184 ft | 367 kts | 201° |
| 2026-05-08 19:18 | 55.60320 | 37.87994 | 22184 ft | 396 kts | 183° |
| 2026-05-08 19:19 | 55.57491 | 37.88233 | 22173 ft | 418 kts | 179° |
| 2026-05-08 19:19 | 55.54545 | 37.88664 | 22179 ft | 428 kts | 178° |
| 2026-05-08 19:19 | 55.51564 | 37.89145 | 22183 ft | 430 kts | 178° |
| 2026-05-08 19:19 | 55.48585 | 37.89636 | 22184 ft | 430 kts | 178° |
| 2026-05-08 19:20 | 55.45645 | 37.90122 | 22184 ft | 429 kts | 178° |
| 2026-05-08 19:20 | 55.44637 | 37.90289 | 22184 ft | 429 kts | 178° |
| 2026-05-08 19:20 | 55.39723 | 37.91760 | 22185 ft | 435 kts | 167° |
| 2026-05-08 19:20 | 55.36903 | 37.93741 | 22185 ft | 440 kts | 156° |
| 2026-05-08 19:21 | 55.34267 | 37.96519 | 22183 ft | 443 kts | 149° |
| 2026-05-08 19:21 | 55.31706 | 37.99552 | 22183 ft | 444 kts | 148° |
| 2026-05-08 19:21 | 55.29144 | 38.02611 | 22169 ft | 445 kts | 149° |
| 2026-05-08 19:21 | 55.26589 | 38.05643 | 22186 ft | 444 kts | 149° |
| 2026-05-08 19:22 | 55.24030 | 38.08662 | 22192 ft | 443 kts | 149° |
| 2026-05-08 19:22 | 55.21453 | 38.11688 | 22373 ft | 447 kts | 149° |
| 2026-05-08 19:22 | 55.18861 | 38.14721 | 23059 ft | 448 kts | 149° |
| 2026-05-08 19:22 | 55.16272 | 38.17748 | 23774 ft | 449 kts | 149° |
| 2026-05-08 19:23 | 55.13693 | 38.20756 | 24255 ft | 453 kts | 149° |
| 2026-05-08 19:23 | 55.11056 | 38.23826 | 24757 ft | 456 kts | 149° |
| 2026-05-08 19:23 | 55.08406 | 38.26905 | 25259 ft | 459 kts | 149° |
| 2026-05-08 19:23 | 55.05735 | 38.30003 | 25765 ft | 462 kts | 149° |
| 2026-05-08 19:24 | 55.03046 | 38.33117 | 26264 ft | 465 kts | 149° |
| 2026-05-08 19:24 | 55.00343 | 38.36242 | 26800 ft | 467 kts | 149° |
| 2026-05-08 19:24 | 54.97628 | 38.39377 | 27291 ft | 470 kts | 149° |
| 2026-05-08 19:24 | 54.94890 | 38.42532 | 27769 ft | 473 kts | 149° |
| 2026-05-08 19:25 | 54.92160 | 38.45668 | 28247 ft | 476 kts | 149° |
| 2026-05-08 19:25 | 54.89383 | 38.48842 | 28708 ft | 479 kts | 150° |
| 2026-05-08 19:25 | 54.86592 | 38.52030 | 29175 ft | 482 kts | 150° |
| 2026-05-08 19:25 | 54.83783 | 38.55239 | 29625 ft | 485 kts | 150° |
| 2026-05-08 19:26 | 54.80948 | 38.58475 | 30064 ft | 488 kts | 150° |
| 2026-05-08 19:26 | 54.78106 | 38.61714 | 30404 ft | 491 kts | 149° |
| 2026-05-08 19:26 | 54.76206 | 38.63878 | 30603 ft | 494 kts | 149° |
| 2026-05-08 19:26 | 54.73291 | 38.67062 | 30936 ft | 495 kts | 152° |
| 2026-05-08 19:27 | 54.70324 | 38.70116 | 31277 ft | 497 kts | 152° |
| 2026-05-08 19:27 | 54.66370 | 38.74171 | 31691 ft | 500 kts | 152° |
| 2026-05-08 19:27 | 54.63377 | 38.77255 | 31980 ft | 502 kts | 152° |
| 2026-05-08 19:27 | 54.60379 | 38.80352 | 32340 ft | 502 kts | 152° |
| 2026-05-08 19:28 | 54.58355 | 38.82449 | 32639 ft | 501 kts | 152° |
| 2026-05-08 19:28 | 54.55372 | 38.85540 | 33104 ft | 499 kts | 152° |
| 2026-05-08 19:28 | 54.52398 | 38.88617 | 33456 ft | 499 kts | 152° |
| 2026-05-08 19:28 | 54.49451 | 38.91661 | 33811 ft | 499 kts | 152° |
| 2026-05-08 19:29 | 54.46476 | 38.94731 | 34202 ft | 498 kts | 152° |
| 2026-05-08 19:29 | 54.43555 | 38.97955 | 34533 ft | 500 kts | 146° |
| 2026-05-08 19:29 | 54.40889 | 39.01802 | 34827 ft | 503 kts | 137° |
| 2026-05-08 19:29 | 54.38597 | 39.06360 | 35117 ft | 506 kts | 127° |
| 2026-05-08 19:30 | 54.36755 | 39.11522 | 35382 ft | 509 kts | 117° |
| 2026-05-08 19:30 | 54.35280 | 39.17051 | 35642 ft | 509 kts | 114° |
| 2026-05-08 19:30 | 54.33917 | 39.22666 | 35909 ft | 509 kts | 112° |
| 2026-05-08 19:30 | 54.32601 | 39.28298 | 36220 ft | 508 kts | 112° |
| 2026-05-08 19:31 | 54.31290 | 39.33931 | 36495 ft | 508 kts | 112° |
| 2026-05-08 19:31 | 54.29986 | 39.39459 | 36749 ft | 507 kts | 112° |
| 2026-05-08 19:31 | 54.28632 | 39.45113 | 37004 ft | 507 kts | 112° |
| 2026-05-08 19:31 | 54.27297 | 39.50621 | 37263 ft | 507 kts | 113° |
| 2026-05-08 19:32 | 54.25938 | 39.56180 | 37485 ft | 506 kts | 113° |
| 2026-05-08 19:32 | 54.24576 | 39.61725 | 37747 ft | 506 kts | 113° |
| 2026-05-08 19:32 | 54.23210 | 39.67271 | 37983 ft | 505 kts | 113° |
| 2026-05-08 19:32 | 54.21843 | 39.72804 | 38212 ft | 505 kts | 113° |
| 2026-05-08 19:33 | 54.20474 | 39.78337 | 38430 ft | 505 kts | 113° |
| 2026-05-08 19:33 | 54.19108 | 39.83845 | 38631 ft | 505 kts | 113° |
| 2026-05-08 19:33 | 54.17734 | 39.89372 | 38838 ft | 504 kts | 113° |
| 2026-05-08 19:33 | 54.16361 | 39.94882 | 38984 ft | 504 kts | 113° |
| 2026-05-08 19:34 | 54.14988 | 40.00379 | 39118 ft | 505 kts | 113° |
| 2026-05-08 19:34 | 54.12254 | 40.11420 | 39132 ft | 506 kts | 111° |
| 2026-05-08 19:35 | 54.10098 | 40.22864 | 39121 ft | 507 kts | 107° |
| 2026-05-08 19:35 | 54.08105 | 40.34301 | 39128 ft | 506 kts | 106° |
| 2026-05-08 19:36 | 54.06116 | 40.45802 | 39122 ft | 506 kts | 106° |
| 2026-05-08 19:36 | 54.04109 | 40.57287 | 39119 ft | 506 kts | 107° |
| 2026-05-08 19:37 | 54.02081 | 40.68765 | 39117 ft | 506 kts | 107° |
| 2026-05-08 19:37 | 54.00043 | 40.80213 | 39111 ft | 505 kts | 107° |
| 2026-05-08 19:38 | 53.97997 | 40.91634 | 39115 ft | 505 kts | 107° |
| 2026-05-08 19:38 | 53.95941 | 41.03042 | 39105 ft | 505 kts | 107° |
| 2026-05-08 19:39 | 53.93986 | 41.14397 | 39102 ft | 505 kts | 105° |
| 2026-05-08 19:39 | 53.92135 | 41.25916 | 39092 ft | 504 kts | 105° |
| 2026-05-08 19:40 | 53.90277 | 41.37364 | 39099 ft | 503 kts | 105° |
| 2026-05-08 19:40 | 53.88382 | 41.48812 | 39103 ft | 503 kts | 105° |
| 2026-05-08 19:41 | 53.86479 | 41.60163 | 39096 ft | 504 kts | 106° |
| 2026-05-08 19:41 | 53.84549 | 41.71587 | 39084 ft | 505 kts | 106° |
| 2026-05-08 19:42 | 53.82609 | 41.83002 | 39083 ft | 504 kts | 106° |
| 2026-05-08 19:42 | 53.80653 | 41.94375 | 39080 ft | 503 kts | 106° |
| 2026-05-08 19:43 | 53.78687 | 42.05735 | 39084 ft | 503 kts | 106° |
| 2026-05-08 19:43 | 53.76713 | 42.17075 | 39071 ft | 503 kts | 106° |
| 2026-05-08 19:44 | 53.74728 | 42.28416 | 39064 ft | 503 kts | 106° |
| 2026-05-08 19:44 | 53.72734 | 42.39733 | 39067 ft | 502 kts | 106° |
| 2026-05-08 19:45 | 53.70732 | 42.51032 | 39061 ft | 502 kts | 106° |
| 2026-05-08 19:45 | 53.68721 | 42.62304 | 39062 ft | 502 kts | 106° |
| 2026-05-08 19:46 | 53.66737 | 42.73598 | 39056 ft | 502 kts | 105° |
| 2026-05-08 19:46 | 53.64110 | 42.90604 | 39053 ft | 501 kts | 103° |
| 2026-05-08 19:47 | 53.62353 | 43.01966 | 39048 ft | 501 kts | 104° |
| 2026-05-08 19:47 | 53.60554 | 43.13315 | 39044 ft | 501 kts | 104° |
| 2026-05-08 19:48 | 53.58734 | 43.24642 | 39042 ft | 501 kts | 104° |
| 2026-05-08 19:48 | 53.56900 | 43.35965 | 39036 ft | 501 kts | 104° |
| 2026-05-08 19:49 | 53.55057 | 43.47275 | 39036 ft | 502 kts | 104° |
| 2026-05-08 19:49 | 53.53201 | 43.58598 | 39030 ft | 502 kts | 104° |
| 2026-05-08 19:50 | 53.51336 | 43.69904 | 39033 ft | 502 kts | 104° |
| 2026-05-08 19:50 | 53.49460 | 43.81196 | 39025 ft | 502 kts | 104° |
| 2026-05-08 19:51 | 53.47574 | 43.92489 | 39030 ft | 502 kts | 105° |
| 2026-05-08 19:51 | 53.45690 | 44.03685 | 39023 ft | 502 kts | 105° |
| 2026-05-08 19:52 | 53.43781 | 44.14954 | 39019 ft | 502 kts | 105° |
| 2026-05-08 19:52 | 53.41863 | 44.26199 | 39015 ft | 502 kts | 105° |
| 2026-05-08 19:53 | 53.39929 | 44.37476 | 39017 ft | 502 kts | 105° |
| 2026-05-08 19:53 | 53.37990 | 44.48703 | 39006 ft | 501 kts | 105° |
| 2026-05-08 19:54 | 53.36056 | 44.59845 | 39004 ft | 501 kts | 105° |
| 2026-05-08 19:54 | 53.34101 | 44.71030 | 39002 ft | 501 kts | 105° |
| 2026-05-08 19:55 | 53.32132 | 44.82212 | 39002 ft | 501 kts | 105° |
| 2026-05-08 19:55 | 53.30154 | 44.93384 | 38997 ft | 501 kts | 105° |
| 2026-05-08 19:56 | 53.28163 | 45.04556 | 38995 ft | 501 kts | 106° |
| 2026-05-08 19:56 | 53.26017 | 45.15638 | 38993 ft | 502 kts | 109° |
| 2026-05-08 19:57 | 53.23571 | 45.26561 | 38994 ft | 502 kts | 110° |
| 2026-05-08 19:57 | 53.21111 | 45.37470 | 38994 ft | 502 kts | 110° |
| 2026-05-08 19:58 | 53.18689 | 45.48393 | 38983 ft | 502 kts | 109° |
| 2026-05-08 19:58 | 53.16298 | 45.59237 | 38983 ft | 501 kts | 109° |
| 2026-05-08 19:59 | 53.13886 | 45.70136 | 38982 ft | 501 kts | 109° |
| 2026-05-08 19:59 | 53.11461 | 45.81026 | 38985 ft | 501 kts | 110° |
| 2026-05-08 20:00 | 53.09037 | 45.91908 | 38976 ft | 501 kts | 109° |
| 2026-05-08 20:00 | 53.06623 | 46.02785 | 38975 ft | 501 kts | 109° |
| 2026-05-08 20:01 | 53.04204 | 46.13627 | 38977 ft | 500 kts | 110° |
| 2026-05-08 20:01 | 53.01774 | 46.24453 | 38978 ft | 500 kts | 110° |
| 2026-05-08 20:02 | 52.99335 | 46.35253 | 38975 ft | 500 kts | 110° |
| 2026-05-08 20:02 | 52.96884 | 46.46052 | 38967 ft | 500 kts | 110° |
| 2026-05-08 20:03 | 52.94427 | 46.56829 | 38969 ft | 499 kts | 110° |
| 2026-05-08 20:03 | 52.91977 | 46.67516 | 38964 ft | 499 kts | 110° |
| 2026-05-08 20:04 | 52.89501 | 46.78259 | 38964 ft | 499 kts | 110° |
| 2026-05-08 20:04 | 52.87013 | 46.89002 | 38962 ft | 499 kts | 110° |
| 2026-05-08 20:05 | 52.84516 | 46.99730 | 38966 ft | 499 kts | 110° |
| 2026-05-08 20:05 | 52.82011 | 47.10439 | 38953 ft | 499 kts | 110° |
| 2026-05-08 20:06 | 52.79615 | 47.21194 | 38955 ft | 499 kts | 108° |
| 2026-05-08 20:06 | 52.77354 | 47.32017 | 38951 ft | 499 kts | 108° |
| 2026-05-08 20:07 | 52.75086 | 47.42776 | 38949 ft | 499 kts | 109° |
| 2026-05-08 20:07 | 52.72768 | 47.53570 | 38942 ft | 499 kts | 109° |
| 2026-05-08 20:08 | 52.70434 | 47.64345 | 38948 ft | 499 kts | 109° |
| 2026-05-08 20:08 | 52.68095 | 47.75118 | 38936 ft | 499 kts | 109° |
| 2026-05-08 20:09 | 52.65748 | 47.85887 | 38931 ft | 499 kts | 109° |
| 2026-05-08 20:09 | 52.63390 | 47.96645 | 38921 ft | 499 kts | 109° |
| 2026-05-08 20:10 | 52.61020 | 48.07401 | 38921 ft | 500 kts | 109° |
| 2026-05-08 20:10 | 52.58653 | 48.18084 | 38925 ft | 500 kts | 109° |
| 2026-05-08 20:11 | 52.56255 | 48.28816 | 38912 ft | 500 kts | 109° |
| 2026-05-08 20:11 | 52.53849 | 48.39530 | 38910 ft | 500 kts | 109° |
| 2026-05-08 20:12 | 52.51436 | 48.50228 | 38908 ft | 498 kts | 109° |
| 2026-05-08 20:12 | 52.49021 | 48.60882 | 38908 ft | 497 kts | 109° |
| 2026-05-08 20:13 | 52.46601 | 48.71501 | 38907 ft | 497 kts | 110° |
| 2026-05-08 20:13 | 52.44169 | 48.82120 | 38898 ft | 497 kts | 110° |
| 2026-05-08 20:14 | 52.42140 | 48.90943 | 38901 ft | 498 kts | 110° |
| 2026-05-08 20:14 | 52.39688 | 49.01556 | 38894 ft | 498 kts | 110° |
| 2026-05-08 20:15 | 52.36820 | 49.13897 | 38897 ft | 499 kts | 110° |
| 2026-05-08 20:15 | 52.34742 | 49.22786 | 38891 ft | 499 kts | 110° |
| 2026-05-08 20:16 | 52.32263 | 49.33303 | 38891 ft | 499 kts | 110° |
| 2026-05-08 20:16 | 52.29743 | 49.43940 | 38884 ft | 498 kts | 110° |
| 2026-05-08 20:17 | 52.27257 | 49.54428 | 38891 ft | 498 kts | 110° |
| 2026-05-08 20:17 | 52.24742 | 49.64967 | 38889 ft | 498 kts | 110° |
| 2026-05-08 20:18 | 52.22216 | 49.75500 | 38886 ft | 498 kts | 110° |
| 2026-05-08 20:18 | 52.19686 | 49.86008 | 38885 ft | 498 kts | 111° |
| 2026-05-08 20:19 | 52.17157 | 49.96458 | 38884 ft | 498 kts | 111° |
| 2026-05-08 20:19 | 52.14610 | 50.06935 | 38884 ft | 498 kts | 111° |
| 2026-05-08 20:20 | 52.12050 | 50.17416 | 38879 ft | 498 kts | 111° |
| 2026-05-08 20:20 | 52.09480 | 50.27886 | 38882 ft | 498 kts | 111° |
| 2026-05-08 20:21 | 52.06902 | 50.38340 | 38880 ft | 497 kts | 111° |
| 2026-05-08 20:21 | 52.04332 | 50.48712 | 38879 ft | 497 kts | 111° |
| 2026-05-08 20:22 | 52.01739 | 50.59128 | 38874 ft | 497 kts | 111° |
| 2026-05-08 20:22 | 51.99137 | 50.69526 | 38878 ft | 497 kts | 111° |
| 2026-05-08 20:23 | 51.96526 | 50.79919 | 38875 ft | 497 kts | 111° |
| 2026-05-08 20:23 | 51.93903 | 50.90299 | 38872 ft | 497 kts | 112° |
| 2026-05-08 20:24 | 51.91214 | 51.00607 | 38875 ft | 496 kts | 112° |
| 2026-05-08 20:24 | 51.88493 | 51.10891 | 38870 ft | 497 kts | 112° |
| 2026-05-08 20:25 | 51.85768 | 51.21179 | 38870 ft | 498 kts | 112° |
| 2026-05-08 20:25 | 51.83057 | 51.31401 | 38873 ft | 498 kts | 112° |
| 2026-05-08 20:26 | 51.80321 | 51.41677 | 38869 ft | 497 kts | 112° |
| 2026-05-08 20:26 | 51.77580 | 51.51923 | 38869 ft | 497 kts | 112° |
| 2026-05-08 20:27 | 51.74830 | 51.62162 | 38869 ft | 497 kts | 112° |
| 2026-05-08 20:27 | 51.72069 | 51.72394 | 38866 ft | 497 kts | 113° |
| 2026-05-08 20:28 | 51.69301 | 51.82606 | 38868 ft | 496 kts | 113° |
| 2026-05-08 20:28 | 51.65926 | 51.92257 | 38870 ft | 495 kts | 125° |
| 2026-05-08 20:29 | 51.61779 | 52.01101 | 38867 ft | 495 kts | 127° |
| 2026-05-08 20:29 | 51.57509 | 52.09777 | 38871 ft | 495 kts | 128° |
| 2026-05-08 20:30 | 51.53223 | 52.18442 | 38866 ft | 495 kts | 128° |
| 2026-05-08 20:30 | 51.48944 | 52.27113 | 38868 ft | 496 kts | 128° |
| 2026-05-08 20:31 | 51.44653 | 52.35807 | 38866 ft | 496 kts | 128° |
| 2026-05-08 20:31 | 51.40389 | 52.44421 | 38868 ft | 497 kts | 128° |
| 2026-05-08 20:32 | 51.36078 | 52.53100 | 38864 ft | 498 kts | 128° |
| 2026-05-08 20:32 | 51.31757 | 52.61768 | 38873 ft | 499 kts | 128° |
| 2026-05-08 20:33 | 51.27443 | 52.70392 | 38874 ft | 499 kts | 128° |
| 2026-05-08 20:33 | 51.23108 | 52.79029 | 38873 ft | 499 kts | 128° |
| 2026-05-08 20:34 | 51.18762 | 52.87660 | 38872 ft | 499 kts | 128° |
| 2026-05-08 20:34 | 51.14409 | 52.96275 | 39110 ft | 499 kts | 128° |
| 2026-05-08 20:35 | 51.12233 | 53.00570 | 39278 ft | 498 kts | 129° |
| 2026-05-08 20:35 | 51.10052 | 53.04869 | 39438 ft | 498 kts | 129° |
| 2026-05-08 20:35 | 51.07867 | 53.09168 | 39578 ft | 498 kts | 129° |
| 2026-05-08 20:35 | 51.05713 | 53.13399 | 39715 ft | 498 kts | 129° |
| 2026-05-08 20:36 | 51.03531 | 53.17677 | 39841 ft | 498 kts | 129° |
| 2026-05-08 20:36 | 51.01347 | 53.21954 | 39964 ft | 499 kts | 129° |
| 2026-05-08 20:36 | 50.99156 | 53.26235 | 40086 ft | 499 kts | 129° |
| 2026-05-08 20:36 | 50.96966 | 53.30510 | 40220 ft | 499 kts | 129° |
| 2026-05-08 20:37 | 50.94772 | 53.34783 | 40334 ft | 499 kts | 129° |
| 2026-05-08 20:37 | 50.92582 | 53.39042 | 40456 ft | 499 kts | 129° |
| 2026-05-08 20:37 | 50.90381 | 53.43317 | 40575 ft | 499 kts | 129° |
| 2026-05-08 20:37 | 50.88180 | 53.47582 | 40688 ft | 499 kts | 129° |
| 2026-05-08 20:38 | 50.86008 | 53.51787 | 40814 ft | 499 kts | 129° |
| 2026-05-08 20:38 | 50.81596 | 53.60303 | 40873 ft | 500 kts | 130° |
| 2026-05-08 20:39 | 50.77181 | 53.68797 | 40872 ft | 500 kts | 130° |
| 2026-05-08 20:39 | 50.72765 | 53.77266 | 40870 ft | 499 kts | 130° |
| 2026-05-08 20:40 | 50.68342 | 53.85723 | 40867 ft | 499 kts | 130° |
| 2026-05-08 20:40 | 50.63933 | 53.94124 | 40868 ft | 500 kts | 130° |
| 2026-05-08 20:41 | 50.59491 | 54.02561 | 40865 ft | 500 kts | 130° |
| 2026-05-08 20:41 | 50.55047 | 54.10974 | 40862 ft | 499 kts | 130° |
| 2026-05-08 20:42 | 50.50596 | 54.19373 | 40865 ft | 500 kts | 130° |
| 2026-05-08 20:42 | 50.46139 | 54.27756 | 40860 ft | 500 kts | 130° |
| 2026-05-08 20:43 | 50.41703 | 54.36074 | 40860 ft | 500 kts | 130° |
| 2026-05-08 20:43 | 50.37237 | 54.44419 | 40854 ft | 500 kts | 130° |
| 2026-05-08 20:44 | 50.32862 | 54.52891 | 40857 ft | 501 kts | 124° |
| 2026-05-08 20:44 | 50.29831 | 54.62658 | 40861 ft | 501 kts | 107° |
| 2026-05-08 20:45 | 50.27939 | 54.73175 | 40854 ft | 504 kts | 104° |
| 2026-05-08 20:45 | 50.26232 | 54.83802 | 40849 ft | 504 kts | 104° |
| 2026-05-08 20:46 | 50.24511 | 54.94437 | 40847 ft | 505 kts | 104° |
| 2026-05-08 20:46 | 50.22745 | 55.05074 | 40845 ft | 506 kts | 105° |
| 2026-05-08 20:47 | 50.20965 | 55.15629 | 40845 ft | 506 kts | 105° |
| 2026-05-08 20:47 | 50.19163 | 55.26240 | 40846 ft | 506 kts | 105° |
| 2026-05-08 20:48 | 50.17353 | 55.36842 | 40836 ft | 506 kts | 105° |
| 2026-05-08 20:48 | 50.15532 | 55.47450 | 40832 ft | 506 kts | 105° |
| 2026-05-08 20:49 | 50.13701 | 55.58051 | 40832 ft | 506 kts | 105° |
| 2026-05-08 20:49 | 50.11860 | 55.68645 | 40830 ft | 506 kts | 105° |
| 2026-05-08 20:50 | 50.10008 | 55.79237 | 40826 ft | 506 kts | 105° |
| 2026-05-08 20:50 | 50.08147 | 55.89819 | 40825 ft | 506 kts | 105° |
| 2026-05-08 20:51 | 50.06278 | 56.00387 | 40827 ft | 507 kts | 105° |
| 2026-05-08 20:51 | 50.04393 | 56.10975 | 40826 ft | 508 kts | 106° |
| 2026-05-08 20:52 | 50.02509 | 56.21502 | 40821 ft | 508 kts | 106° |
| 2026-05-08 20:52 | 50.00603 | 56.32091 | 40817 ft | 508 kts | 106° |
| 2026-05-08 20:53 | 49.98686 | 56.42676 | 40813 ft | 508 kts | 106° |
| 2026-05-08 20:53 | 49.96760 | 56.53251 | 40808 ft | 509 kts | 106° |
| 2026-05-08 20:54 | 49.94824 | 56.63820 | 40809 ft | 509 kts | 106° |
| 2026-05-08 20:54 | 49.92878 | 56.74379 | 40804 ft | 509 kts | 107° |
| 2026-05-08 20:55 | 49.90922 | 56.84934 | 40807 ft | 509 kts | 107° |
| 2026-05-08 20:55 | 49.88966 | 56.95426 | 40807 ft | 509 kts | 107° |
| 2026-05-08 20:56 | 49.86989 | 57.05975 | 40801 ft | 510 kts | 107° |
| 2026-05-08 20:56 | 49.84997 | 57.16543 | 40804 ft | 510 kts | 107° |
| 2026-05-08 20:57 | 49.82995 | 57.27102 | 40806 ft | 510 kts | 107° |
| 2026-05-08 20:57 | 49.80997 | 57.37589 | 40802 ft | 510 kts | 107° |
| 2026-05-08 20:58 | 49.78977 | 57.48130 | 40803 ft | 510 kts | 107° |
| 2026-05-08 20:58 | 49.76947 | 57.58660 | 40806 ft | 511 kts | 108° |
| 2026-05-08 20:59 | 49.74907 | 57.69187 | 40808 ft | 511 kts | 108° |
| 2026-05-08 20:59 | 49.72856 | 57.79707 | 40809 ft | 511 kts | 108° |
| 2026-05-08 21:00 | 49.70805 | 57.90157 | 40810 ft | 511 kts | 108° |
| 2026-05-08 21:00 | 49.68694 | 58.00647 | 40813 ft | 511 kts | 109° |
| 2026-05-08 21:01 | 49.66561 | 58.11132 | 40817 ft | 512 kts | 109° |
| 2026-05-08 21:01 | 49.64423 | 58.21616 | 40815 ft | 512 kts | 109° |
| 2026-05-08 21:02 | 49.62275 | 58.32120 | 40820 ft | 512 kts | 109° |
| 2026-05-08 21:02 | 49.60137 | 58.42524 | 40818 ft | 512 kts | 109° |
| 2026-05-08 21:03 | 49.57975 | 58.52988 | 40820 ft | 512 kts | 109° |
| 2026-05-08 21:03 | 49.55799 | 58.63462 | 40821 ft | 512 kts | 109° |
| 2026-05-08 21:04 | 49.53987 | 58.72141 | 40824 ft | 512 kts | 109° |
| 2026-05-08 21:04 | 49.51796 | 58.82582 | 40824 ft | 512 kts | 109° |
| 2026-05-08 21:05 | 49.49596 | 58.93017 | 40822 ft | 512 kts | 109° |
| 2026-05-08 21:05 | 49.47387 | 59.03442 | 40822 ft | 512 kts | 110° |
| 2026-05-08 21:06 | 49.45171 | 59.13850 | 40828 ft | 513 kts | 110° |
| 2026-05-08 21:06 | 49.42941 | 59.24263 | 40829 ft | 513 kts | 110° |
| 2026-05-08 21:07 | 49.40703 | 59.34665 | 40837 ft | 513 kts | 110° |
| 2026-05-08 21:07 | 49.38468 | 59.44996 | 40834 ft | 513 kts | 110° |
| 2026-05-08 21:08 | 49.36196 | 59.55448 | 40834 ft | 513 kts | 110° |
| 2026-05-08 21:08 | 49.33944 | 59.65756 | 40839 ft | 514 kts | 110° |
| 2026-05-08 21:09 | 49.31659 | 59.76160 | 40842 ft | 515 kts | 111° |
| 2026-05-08 21:09 | 49.29361 | 59.86574 | 40851 ft | 515 kts | 111° |
| 2026-05-08 21:10 | 49.27052 | 59.96986 | 40850 ft | 515 kts | 111° |
| 2026-05-08 21:10 | 49.24737 | 60.07376 | 40841 ft | 515 kts | 111° |
| 2026-05-08 21:11 | 49.22423 | 60.17701 | 40855 ft | 516 kts | 111° |
| 2026-05-08 21:11 | 49.20084 | 60.28090 | 40861 ft | 517 kts | 111° |
| 2026-05-08 21:12 | 49.17735 | 60.38478 | 40862 ft | 517 kts | 111° |
| 2026-05-08 21:12 | 49.15376 | 60.48854 | 40865 ft | 517 kts | 111° |
| 2026-05-08 21:13 | 49.13007 | 60.59225 | 40857 ft | 517 kts | 112° |
| 2026-05-08 21:13 | 49.10640 | 60.69537 | 40861 ft | 518 kts | 112° |
| 2026-05-08 21:14 | 49.08250 | 60.79900 | 40864 ft | 518 kts | 112° |
| 2026-05-08 21:14 | 49.05848 | 60.90263 | 40867 ft | 518 kts | 112° |
| 2026-05-08 21:15 | 49.03438 | 61.00613 | 40869 ft | 518 kts | 112° |
| 2026-05-08 21:15 | 49.01013 | 61.10975 | 40871 ft | 518 kts | 112° |
| 2026-05-08 21:16 | 48.98579 | 61.21323 | 40872 ft | 519 kts | 112° |
| 2026-05-08 21:16 | 48.96152 | 61.31593 | 40873 ft | 519 kts | 112° |
| 2026-05-08 21:17 | 48.93701 | 61.41921 | 40871 ft | 519 kts | 112° |
| 2026-05-08 21:17 | 48.91241 | 61.52238 | 40877 ft | 519 kts | 113° |
| 2026-05-08 21:18 | 48.88768 | 61.62556 | 40878 ft | 519 kts | 113° |
| 2026-05-08 21:18 | 48.86286 | 61.72864 | 40881 ft | 520 kts | 113° |
| 2026-05-08 21:19 | 48.83794 | 61.83168 | 40878 ft | 519 kts | 113° |
| 2026-05-08 21:19 | 48.81295 | 61.93448 | 40878 ft | 519 kts | 113° |
| 2026-05-08 21:20 | 48.78787 | 62.03721 | 40866 ft | 519 kts | 113° |
| 2026-05-08 21:20 | 48.76266 | 62.13995 | 40890 ft | 520 kts | 113° |
| 2026-05-08 21:21 | 48.73735 | 62.24265 | 40885 ft | 520 kts | 113° |
| 2026-05-08 21:21 | 48.71208 | 62.34474 | 40885 ft | 520 kts | 114° |
| 2026-05-08 21:22 | 48.68661 | 62.44716 | 40891 ft | 520 kts | 114° |
| 2026-05-08 21:22 | 48.66102 | 62.54960 | 40886 ft | 520 kts | 114° |
| 2026-05-08 21:23 | 48.63528 | 62.65189 | 40890 ft | 520 kts | 114° |
| 2026-05-08 21:23 | 48.60347 | 62.74943 | 40892 ft | 516 kts | 121° |
| 2026-05-08 21:24 | 48.56927 | 62.84456 | 40894 ft | 515 kts | 122° |
| 2026-05-08 21:24 | 48.53457 | 62.93923 | 40876 ft | 515 kts | 122° |
| 2026-05-08 21:25 | 48.49975 | 63.03410 | 40899 ft | 516 kts | 122° |
| 2026-05-08 21:25 | 48.46498 | 63.12879 | 40894 ft | 516 kts | 122° |
| 2026-05-08 21:26 | 48.43014 | 63.22346 | 40898 ft | 516 kts | 122° |
| 2026-05-08 21:26 | 48.39520 | 63.31809 | 40897 ft | 517 kts | 122° |
| 2026-05-08 21:27 | 48.36040 | 63.41195 | 40900 ft | 517 kts | 123° |
| 2026-05-08 21:27 | 48.32526 | 63.50642 | 40900 ft | 517 kts | 123° |
| 2026-05-08 21:28 | 48.29009 | 63.60062 | 40900 ft | 517 kts | 123° |
| 2026-05-08 21:28 | 48.25504 | 63.69416 | 40889 ft | 516 kts | 123° |
| 2026-05-08 21:29 | 48.21969 | 63.78818 | 40906 ft | 517 kts | 123° |
| 2026-05-08 21:29 | 48.18422 | 63.88218 | 40901 ft | 518 kts | 123° |
| 2026-05-08 21:30 | 48.14868 | 63.97602 | 40915 ft | 518 kts | 123° |
| 2026-05-08 21:30 | 48.11307 | 64.06974 | 40909 ft | 518 kts | 123° |
| 2026-05-08 21:31 | 48.07730 | 64.16354 | 40916 ft | 519 kts | 123° |
| 2026-05-08 21:31 | 48.04148 | 64.25714 | 40916 ft | 519 kts | 123° |
| 2026-05-08 21:32 | 48.00576 | 64.35015 | 40921 ft | 519 kts | 124° |
| 2026-05-08 21:32 | 47.96977 | 64.44354 | 40924 ft | 519 kts | 124° |
| 2026-05-08 21:33 | 47.93368 | 64.53687 | 40925 ft | 519 kts | 124° |
| 2026-05-08 21:33 | 47.89751 | 64.63007 | 40927 ft | 519 kts | 124° |
| 2026-05-08 21:34 | 47.86128 | 64.72307 | 40930 ft | 519 kts | 124° |
| 2026-05-08 21:34 | 47.82528 | 64.81521 | 40933 ft | 518 kts | 124° |
| 2026-05-08 21:35 | 47.78893 | 64.90791 | 40935 ft | 519 kts | 124° |
| 2026-05-08 21:35 | 47.75256 | 65.00055 | 40938 ft | 519 kts | 124° |
| 2026-05-08 21:36 | 47.71615 | 65.09312 | 40942 ft | 519 kts | 124° |
| 2026-05-08 21:36 | 47.67968 | 65.18554 | 40941 ft | 519 kts | 125° |
| 2026-05-08 21:37 | 47.64310 | 65.27788 | 40945 ft | 519 kts | 125° |
| 2026-05-08 21:37 | 47.60642 | 65.37014 | 40950 ft | 519 kts | 125° |
| 2026-05-08 21:38 | 47.56992 | 65.46166 | 40951 ft | 519 kts | 125° |
| 2026-05-08 21:38 | 47.53307 | 65.55372 | 40953 ft | 519 kts | 125° |
| 2026-05-08 21:39 | 47.49614 | 65.64569 | 40957 ft | 519 kts | 125° |
| 2026-05-08 21:39 | 47.45915 | 65.73747 | 40960 ft | 519 kts | 125° |
| 2026-05-08 21:40 | 47.42210 | 65.82910 | 40959 ft | 519 kts | 126° |
| 2026-05-08 21:40 | 47.38518 | 65.91999 | 40964 ft | 519 kts | 126° |
| 2026-05-08 21:41 | 47.32899 | 66.05669 | 40967 ft | 520 kts | 126° |
| 2026-05-08 21:41 | 47.29141 | 66.14783 | 40949 ft | 520 kts | 126° |
| 2026-05-08 21:42 | 47.25374 | 66.23895 | 40971 ft | 520 kts | 126° |
| 2026-05-08 21:42 | 47.21614 | 66.32964 | 40970 ft | 521 kts | 126° |
| 2026-05-08 21:43 | 47.17854 | 66.42003 | 40969 ft | 521 kts | 126° |
| 2026-05-08 21:43 | 47.14062 | 66.51089 | 40968 ft | 521 kts | 126° |
| 2026-05-08 21:44 | 47.10264 | 66.60159 | 40971 ft | 521 kts | 126° |
| 2026-05-08 21:44 | 47.06459 | 66.69216 | 40969 ft | 522 kts | 126° |
| 2026-05-08 21:45 | 47.02637 | 66.78280 | 40973 ft | 523 kts | 126° |
| 2026-05-08 21:45 | 46.98807 | 66.87336 | 40971 ft | 523 kts | 126° |
| 2026-05-08 21:46 | 46.94992 | 66.96327 | 40969 ft | 523 kts | 126° |
| 2026-05-08 21:46 | 46.91193 | 67.05405 | 40973 ft | 523 kts | 126° |
| 2026-05-08 21:47 | 46.87428 | 67.14505 | 40969 ft | 523 kts | 126° |
| 2026-05-08 21:47 | 46.83581 | 67.23521 | 40972 ft | 522 kts | 127° |
| 2026-05-08 21:48 | 46.79706 | 67.32435 | 40957 ft | 522 kts | 127° |
| 2026-05-08 21:48 | 46.75810 | 67.41388 | 40970 ft | 523 kts | 127° |
| 2026-05-08 21:49 | 46.71909 | 67.50352 | 40969 ft | 523 kts | 127° |
| 2026-05-08 21:49 | 46.68004 | 67.59310 | 40963 ft | 523 kts | 127° |
| 2026-05-08 21:50 | 46.64759 | 67.66733 | 40966 ft | 523 kts | 127° |
| 2026-05-08 21:50 | 46.60882 | 67.75687 | 40974 ft | 523 kts | 126° |
| 2026-05-08 21:51 | 46.57055 | 67.84693 | 40977 ft | 523 kts | 126° |
| 2026-05-08 21:51 | 46.53224 | 67.93678 | 40976 ft | 523 kts | 126° |
| 2026-05-08 21:52 | 46.49332 | 68.02582 | 40962 ft | 522 kts | 127° |
| 2026-05-08 21:52 | 46.45404 | 68.11446 | 40977 ft | 522 kts | 127° |
| 2026-05-08 21:53 | 46.41478 | 68.20292 | 40974 ft | 522 kts | 127° |
| 2026-05-08 21:53 | 46.37576 | 68.29083 | 40974 ft | 522 kts | 127° |
| 2026-05-08 21:54 | 46.33646 | 68.37919 | 40964 ft | 522 kts | 127° |
| 2026-05-08 21:54 | 46.29707 | 68.46745 | 40974 ft | 522 kts | 127° |
| 2026-05-08 21:55 | 46.25754 | 68.55574 | 40978 ft | 522 kts | 127° |
| 2026-05-08 21:56 | 46.19822 | 68.68771 | 40952 ft | 522 kts | 127° |
| 2026-05-08 21:56 | 46.15856 | 68.77558 | 40977 ft | 523 kts | 128° |
| 2026-05-08 21:57 | 46.11882 | 68.86337 | 40978 ft | 523 kts | 128° |
| 2026-05-08 21:57 | 46.07900 | 68.95104 | 40974 ft | 523 kts | 128° |
| 2026-05-08 21:58 | 46.03916 | 69.03851 | 40974 ft | 523 kts | 128° |
| 2026-05-08 21:58 | 45.99911 | 69.12602 | 40973 ft | 523 kts | 128° |
| 2026-05-08 21:59 | 45.95920 | 69.21253 | 40973 ft | 523 kts | 128° |
| 2026-05-08 21:59 | 45.91895 | 69.29953 | 40970 ft | 523 kts | 128° |
| 2026-05-08 22:00 | 45.87864 | 69.38646 | 40961 ft | 523 kts | 128° |
| 2026-05-08 22:00 | 45.83830 | 69.47325 | 40965 ft | 523 kts | 128° |
| 2026-05-08 22:01 | 45.79787 | 69.55994 | 40963 ft | 523 kts | 128° |
| 2026-05-08 22:01 | 45.75736 | 69.64655 | 40957 ft | 523 kts | 128° |
| 2026-05-08 22:02 | 45.71673 | 69.73315 | 40966 ft | 523 kts | 128° |
| 2026-05-08 22:02 | 45.67631 | 69.81903 | 40951 ft | 524 kts | 128° |
| 2026-05-08 22:03 | 45.63552 | 69.90544 | 40945 ft | 523 kts | 129° |
| 2026-05-08 22:03 | 45.59472 | 69.99160 | 40933 ft | 523 kts | 129° |
| 2026-05-08 22:04 | 45.55381 | 70.07774 | 40942 ft | 524 kts | 129° |
| 2026-05-08 22:04 | 45.51278 | 70.16387 | 40936 ft | 525 kts | 129° |
| 2026-05-08 22:05 | 45.47162 | 70.24999 | 40931 ft | 526 kts | 129° |
| 2026-05-08 22:05 | 45.43030 | 70.33620 | 40931 ft | 527 kts | 129° |
| 2026-05-08 22:06 | 45.38917 | 70.42177 | 40934 ft | 527 kts | 129° |
| 2026-05-08 22:06 | 45.34774 | 70.50770 | 40932 ft | 527 kts | 129° |
| 2026-05-08 22:07 | 45.30619 | 70.59362 | 40933 ft | 527 kts | 129° |
| 2026-05-08 22:07 | 45.26457 | 70.67940 | 40928 ft | 527 kts | 129° |
| 2026-05-08 22:08 | 45.22297 | 70.76509 | 40934 ft | 528 kts | 129° |
| 2026-05-08 22:08 | 45.18123 | 70.85092 | 40930 ft | 529 kts | 129° |
| 2026-05-08 22:09 | 45.13955 | 70.93632 | 40921 ft | 531 kts | 129° |
| 2026-05-08 22:09 | 45.09740 | 71.02245 | 40927 ft | 533 kts | 129° |
| 2026-05-08 22:10 | 45.05510 | 71.10867 | 40929 ft | 533 kts | 129° |
| 2026-05-08 22:10 | 45.01277 | 71.19468 | 40919 ft | 533 kts | 130° |
| 2026-05-08 22:11 | 44.97036 | 71.28058 | 40916 ft | 534 kts | 129° |
| 2026-05-08 22:11 | 44.92760 | 71.36691 | 40922 ft | 536 kts | 129° |
| 2026-05-08 22:12 | 44.88504 | 71.45260 | 40918 ft | 537 kts | 129° |
| 2026-05-08 22:12 | 44.84203 | 71.53892 | 40903 ft | 538 kts | 129° |
| 2026-05-08 22:13 | 44.79884 | 71.62537 | 40937 ft | 539 kts | 129° |
| 2026-05-08 22:13 | 44.75562 | 71.71164 | 40914 ft | 539 kts | 129° |
| 2026-05-08 22:14 | 44.71225 | 71.79793 | 40913 ft | 539 kts | 130° |
| 2026-05-08 22:14 | 44.66882 | 71.88405 | 40899 ft | 540 kts | 130° |
| 2026-05-08 22:15 | 44.62564 | 71.96943 | 40917 ft | 540 kts | 130° |
| 2026-05-08 22:15 | 44.58208 | 72.05534 | 40916 ft | 540 kts | 129° |
| 2026-05-08 22:16 | 44.53846 | 72.14107 | 40907 ft | 539 kts | 129° |
| 2026-05-08 22:16 | 44.49476 | 72.22671 | 40916 ft | 539 kts | 129° |
| 2026-05-08 22:17 | 44.45130 | 72.31162 | 40919 ft | 540 kts | 129° |
| 2026-05-08 22:17 | 44.40751 | 72.39695 | 40923 ft | 539 kts | 129° |
| 2026-05-08 22:18 | 44.36382 | 72.48188 | 40630 ft | 530 kts | 129° |
| 2026-05-08 22:18 | 44.34219 | 72.52383 | 39771 ft | 536 kts | 129° |
| 2026-05-08 22:18 | 44.32014 | 72.56643 | 38803 ft | 545 kts | 130° |
| 2026-05-08 22:18 | 44.29784 | 72.60948 | 37977 ft | 548 kts | 130° |
| 2026-05-08 22:19 | 44.27560 | 72.65246 | 37321 ft | 545 kts | 129° |
| 2026-05-08 22:19 | 44.25368 | 72.69486 | 36651 ft | 544 kts | 129° |
| 2026-05-08 22:19 | 44.23131 | 72.73807 | 35958 ft | 542 kts | 129° |
| 2026-05-08 22:19 | 44.20923 | 72.78065 | 35265 ft | 541 kts | 129° |
| 2026-05-08 22:20 | 44.18745 | 72.82256 | 34543 ft | 540 kts | 129° |
| 2026-05-08 22:20 | 44.16540 | 72.86492 | 33820 ft | 538 kts | 129° |
| 2026-05-08 22:20 | 44.14344 | 72.90704 | 33021 ft | 537 kts | 130° |
| 2026-05-08 22:20 | 44.12154 | 72.94896 | 32172 ft | 535 kts | 130° |
| 2026-05-08 22:21 | 44.09959 | 72.99093 | 31323 ft | 534 kts | 130° |
| 2026-05-08 22:21 | 44.07774 | 73.03258 | 30524 ft | 532 kts | 130° |
| 2026-05-08 22:21 | 44.05593 | 73.07401 | 29675 ft | 528 kts | 130° |
| 2026-05-08 22:21 | 44.03431 | 73.11497 | 28794 ft | 521 kts | 130° |
| 2026-05-08 22:22 | 44.01328 | 73.15483 | 28058 ft | 504 kts | 129° |
| 2026-05-08 22:22 | 43.99268 | 73.19382 | 27411 ft | 497 kts | 129° |
| 2026-05-08 22:22 | 43.97238 | 73.23220 | 26800 ft | 489 kts | 129° |
| 2026-05-08 22:22 | 43.95239 | 73.26994 | 26197 ft | 482 kts | 129° |
| 2026-05-08 22:23 | 43.93287 | 73.30674 | 25596 ft | 475 kts | 129° |
| 2026-05-08 22:23 | 43.91339 | 73.34344 | 25004 ft | 469 kts | 129° |
| 2026-05-08 22:23 | 43.89419 | 73.37957 | 24420 ft | 462 kts | 129° |
| 2026-05-08 22:23 | 43.87530 | 73.41507 | 23847 ft | 455 kts | 129° |
| 2026-05-08 22:24 | 43.85653 | 73.45030 | 23220 ft | 452 kts | 129° |
| 2026-05-08 22:24 | 43.83795 | 73.48513 | 22615 ft | 447 kts | 129° |
| 2026-05-08 22:24 | 43.81959 | 73.51950 | 22035 ft | 441 kts | 129° |
| 2026-05-08 22:24 | 43.80142 | 73.55349 | 21448 ft | 435 kts | 128° |
| 2026-05-08 22:25 | 43.78353 | 73.58690 | 20908 ft | 430 kts | 128° |
| 2026-05-08 22:25 | 43.76578 | 73.62004 | 20370 ft | 426 kts | 128° |
| 2026-05-08 22:25 | 43.74790 | 73.65332 | 19830 ft | 436 kts | 128° |
| 2026-05-08 22:25 | 43.72968 | 73.68718 | 19252 ft | 440 kts | 128° |
| 2026-05-08 22:26 | 43.71145 | 73.72100 | 18683 ft | 438 kts | 128° |
| 2026-05-08 22:26 | 43.69165 | 73.75258 | 18120 ft | 432 kts | 136° |
| 2026-05-08 22:26 | 43.67021 | 73.78155 | 17481 ft | 428 kts | 138° |
| 2026-05-08 22:26 | 43.64871 | 73.80968 | 16909 ft | 425 kts | 139° |
| 2026-05-08 22:27 | 43.62753 | 73.83715 | 16343 ft | 422 kts | 139° |
| 2026-05-08 22:27 | 43.60622 | 73.86468 | 15776 ft | 419 kts | 139° |
| 2026-05-08 22:27 | 43.58489 | 73.89217 | 15221 ft | 421 kts | 139° |
| 2026-05-08 22:27 | 43.56353 | 73.91960 | 14672 ft | 416 kts | 139° |
| 2026-05-08 22:28 | 43.54197 | 73.94584 | 14147 ft | 411 kts | 141° |
| 2026-05-08 22:28 | 43.52036 | 73.97148 | 13610 ft | 408 kts | 141° |
| 2026-05-08 22:28 | 43.49894 | 73.99692 | 13002 ft | 405 kts | 141° |
| 2026-05-08 22:28 | 43.47767 | 74.02225 | 12431 ft | 401 kts | 140° |
| 2026-05-08 22:29 | 43.45710 | 74.04682 | 11860 ft | 379 kts | 140° |
| 2026-05-08 22:29 | 43.43784 | 74.06987 | 11331 ft | 356 kts | 140° |
| 2026-05-08 22:29 | 43.41972 | 74.09156 | 10809 ft | 336 kts | 140° |
| 2026-05-08 22:29 | 43.40250 | 74.11215 | 10309 ft | 319 kts | 140° |
| 2026-05-08 22:30 | 43.38632 | 74.13185 | 9871 ft | 304 kts | 139° |
| 2026-05-08 22:30 | 43.37125 | 74.15146 | 9396 ft | 293 kts | 136° |
| 2026-05-08 22:30 | 43.35715 | 74.17158 | 8964 ft | 293 kts | 133° |
| 2026-05-08 22:30 | 43.34372 | 74.19266 | 8615 ft | 292 kts | 130° |
| 2026-05-08 22:31 | 43.33112 | 74.21438 | 8343 ft | 290 kts | 127° |
| 2026-05-08 22:31 | 43.31941 | 74.23654 | 8083 ft | 289 kts | 125° |
| 2026-05-08 22:31 | 43.30834 | 74.25958 | 7817 ft | 289 kts | 122° |
| 2026-05-08 22:31 | 43.29803 | 74.28325 | 7556 ft | 288 kts | 120° |
| 2026-05-08 22:32 | 43.28860 | 74.30724 | 7301 ft | 282 kts | 117° |
| 2026-05-08 22:32 | 43.27984 | 74.33093 | 7058 ft | 275 kts | 116° |
| 2026-05-08 22:32 | 43.27133 | 74.35403 | 6818 ft | 267 kts | 116° |
| 2026-05-08 22:32 | 43.26301 | 74.37657 | 6587 ft | 263 kts | 117° |
| 2026-05-08 22:33 | 43.25466 | 74.39905 | 6369 ft | 263 kts | 117° |
| 2026-05-08 22:33 | 43.24635 | 74.42139 | 6123 ft | 263 kts | 117° |
| 2026-05-08 22:33 | 43.23800 | 74.44377 | 5879 ft | 263 kts | 117° |
| 2026-05-08 22:33 | 43.22978 | 74.46578 | 5641 ft | 262 kts | 117° |
| 2026-05-08 22:34 | 43.22147 | 74.48802 | 5409 ft | 261 kts | 116° |
| 2026-05-08 22:34 | 43.21318 | 74.51017 | 5167 ft | 260 kts | 117° |
| 2026-05-08 22:34 | 43.20505 | 74.53191 | 4924 ft | 253 kts | 116° |
| 2026-05-08 22:34 | 43.19709 | 74.55314 | 4697 ft | 247 kts | 116° |
| 2026-05-08 22:35 | 43.18932 | 74.57383 | 4476 ft | 241 kts | 116° |
| 2026-05-08 22:35 | 43.18185 | 74.59373 | 4403 ft | 228 kts | 117° |
| 2026-05-08 22:35 | 43.17470 | 74.61276 | 4405 ft | 222 kts | 117° |
| 2026-05-08 22:35 | 43.16762 | 74.63158 | 4394 ft | 222 kts | 117° |
| 2026-05-08 22:36 | 43.16041 | 74.65029 | 4388 ft | 223 kts | 120° |
| 2026-05-08 22:36 | 43.15072 | 74.66677 | 4395 ft | 223 kts | 136° |
| 2026-05-08 22:36 | 43.13877 | 74.68018 | 4392 ft | 222 kts | 146° |
| 2026-05-08 22:36 | 43.12949 | 74.68595 | 4387 ft | 222 kts | 166° |
| 2026-05-08 22:37 | 43.11435 | 74.68473 | 4280 ft | 220 kts | 201° |
| 2026-05-08 22:37 | 43.09757 | 74.67053 | 3888 ft | 207 kts | 219° |
| 2026-05-08 22:37 | 43.08867 | 74.65587 | 3595 ft | 196 kts | 237° |
| 2026-05-08 22:37 | 43.08257 | 74.64001 | 3420 ft | 180 kts | 248° |
| 2026-05-08 22:38 | 43.08038 | 74.62914 | 3414 ft | 178 kts | 257° |
| 2026-05-08 22:38 | 43.07841 | 74.61312 | 3399 ft | 162 kts | 260° |
| 2026-05-08 22:38 | 43.07680 | 74.59843 | 3401 ft | 154 kts | 259° |
| 2026-05-08 22:38 | 43.07495 | 74.58392 | 3234 ft | 155 kts | 258° |
| 2026-05-08 22:39 | 43.07303 | 74.56927 | 3037 ft | 160 kts | 258° |
| 2026-05-08 22:39 | 43.07117 | 74.55461 | 2836 ft | 151 kts | 259° |
| 2026-05-08 22:39 | 43.06942 | 74.54074 | 2656 ft | 147 kts | 259° |
| 2026-05-08 22:39 | 43.06762 | 74.52675 | 2452 ft | 149 kts | 259° |
| 2026-05-08 22:40 | 43.06583 | 74.51288 | 2275 ft | 149 kts | 260° |
| 2026-05-08 22:40 | 43.06402 | 74.49886 | 2122 ft | 150 kts | 259° |
| 2026-05-08 22:40 | 43.06228 | 74.48551 | 2071 ft | 128 kts | 260° |
| 2026-05-08 22:40 | 43.06125 | 74.47712 | 2074 ft | 47 kts | 260° |
| 2026-05-08 22:41 | 43.06103 | 74.47559 | 2071 ft | 9 kts | 259° |
| 2026-05-08 22:41 | 43.06090 | 74.47467 | 2071 ft | 11 kts | 259° |
| 2026-05-08 22:41 | 43.06075 | 74.47359 | 2072 ft | 12 kts | 259° |
| 2026-05-08 22:41 | 43.06058 | 74.47237 | 2071 ft | 14 kts | 260° |
| 2026-05-08 22:42 | 43.06035 | 74.47130 | 2071 ft | 11 kts | 230° |
| 2026-05-08 22:42 | 43.05966 | 74.47111 | 2073 ft | 10 kts | 173° |
| 2026-05-08 22:42 | 43.05910 | 74.47124 | 2073 ft | 0 kts | 170° |
| 2026-05-08 22:43 | 43.05897 | 74.47127 | 2074 ft | 4 kts | 168° |
| 2026-05-08 22:43 | 43.05849 | 74.47141 | 2073 ft | 8 kts | 168° |
| 2026-05-08 22:43 | 43.05782 | 74.47159 | 2074 ft | 10 kts | 169° |
| 2026-05-08 22:43 | 43.05719 | 74.47174 | 2072 ft | 8 kts | 172° |
| 2026-05-08 22:44 | 43.05658 | 74.47184 | 2072 ft | 8 kts | 176° |
| 2026-05-08 22:44 | 43.05617 | 74.47145 | 2072 ft | 5 kts | 238° |
| 2026-05-08 22:44 | 43.05602 | 74.47096 | 2071 ft | 7 kts | 251° |
| 2026-05-08 22:44 | 43.05593 | 74.47046 | 2072 ft | 0 kts | 259° |
| 2026-05-08 22:45 | 43.05593 | 74.47042 | 2072 ft | 1 kts | 260° |
| 2026-05-08 22:45 | 43.05585 | 74.46987 | 2071 ft | 9 kts | 253° |
| 2026-05-08 22:45 | 43.05562 | 74.46952 | 2071 ft | 2 kts | 195° |
| 2026-05-08 22:46 | 43.05533 | 74.46954 | 2073 ft | 3 kts | 173° |
| 2026-05-08 22:46 | 43.05513 | 74.46957 | 2070 ft | 2 kts | 173° |
| 2026-05-08 22:46 | 43.05503 | 74.46960 | 2073 ft | 0 kts | 169° |